Time;durP1;ratioP1;P1;durP2;ratioP2;P2;SDS_P1;SDS_P2;PMS_P1;PMS_P2;Temp;Humidity;BMP_temperature;BMP_pressure;BME280_temperature;BME280_humidity;BME280_pressure;Samples;Min_cycle;Max_cycle;Signal;HPM_P1;HPM_P2
2021/08/16 00:01:59;;;;;;;11.65;8.63;;;21.30;80.00;;;;;;6275110;28;20436;-77
2021/08/16 00:05:02;;;;;;;11.35;7.80;;;21.40;79.90;;;;;;6275092;28;20443;-78
2021/08/16 00:08:07;;;;;;;11.80;8.57;;;21.40;80.10;;;;;;6274705;28;20546;-76
2021/08/16 00:11:09;;;;;;;13.50;10.23;;;21.40;80.30;;;;;;6274482;28;20412;-76
2021/08/16 00:14:10;;;;;;;12.23;10.70;;;21.40;80.80;;;;;;6274993;28;21063;-76
2021/08/16 00:17:14;;;;;;;11.55;9.70;;;21.40;81.50;;;;;;6274545;28;20423;-77
2021/08/16 00:20:15;;;;;;;17.10;11.38;;;21.40;81.10;;;;;;6274668;28;20496;-77
2021/08/16 00:23:17;;;;;;;16.10;11.57;;;21.40;81.40;;;;;;6275270;28;20543;-77
2021/08/16 00:26:19;;;;;;;14.73;13.20;;;21.40;81.90;;;;;;6275937;28;21020;-77
2021/08/16 00:29:21;;;;;;;12.32;10.75;;;21.50;82.20;;;;;;6275019;28;20441;-76
2021/08/16 00:32:25;;;;;;;13.52;12.10;;;21.50;81.90;;;;;;6273170;28;20500;-76
2021/08/16 00:35:26;;;;;;;18.42;13.38;;;21.60;82.10;;;;;;6276735;28;20433;-76
2021/08/16 00:38:28;;;;;;;15.50;12.93;;;21.70;82.20;;;;;;6277378;28;20475;-77
2021/08/16 00:41:31;;;;;;;16.98;14.55;;;21.70;82.20;;;;;;6277159;28;20494;-77
2021/08/16 00:44:33;;;;;;;21.17;13.65;;;21.70;82.80;;;;;;6277089;28;20409;-76
2021/08/16 00:47:38;;;;;;;16.83;13.00;;;21.70;82.90;;;;;;6276962;28;20463;-75
2021/08/16 00:50:40;;;;;;;15.95;13.30;;;21.70;82.90;;;;;;6274799;28;20461;-77
2021/08/16 00:53:42;;;;;;;15.25;13.18;;;21.80;83.10;;;;;;6273851;28;20470;-76
2021/08/16 00:56:44;;;;;;;15.07;12.25;;;21.90;83.10;;;;;;6273752;28;20438;-77
2021/08/16 00:59:46;;;;;;;14.57;12.80;;;21.90;83.20;;;;;;6273951;28;20445;-77
2021/08/16 01:02:50;;;;;;;16.90;13.77;;;21.90;83.40;;;;;;6273229;28;20436;-77
2021/08/16 01:05:53;;;;;;;15.60;13.13;;;21.90;83.70;;;;;;6273533;28;20433;-77
2021/08/16 01:08:55;;;;;;;16.77;13.65;;;21.90;83.70;;;;;;6272183;28;20410;-77
2021/08/16 01:11:57;;;;;;;15.73;14.02;;;21.90;84.00;;;;;;6273056;28;20424;-77
2021/08/16 01:14:59;;;;;;;20.27;13.80;;;22.00;83.80;;;;;;6273044;28;20429;-77
2021/08/16 01:18:03;;;;;;;20.48;13.30;;;22.00;83.60;;;;;;6272909;28;20913;-77
2021/08/16 01:21:08;;;;;;;15.40;13.25;;;22.10;83.50;;;;;;6273074;28;20409;-77
2021/08/16 01:24:09;;;;;;;15.65;13.98;;;22.10;83.30;;;;;;6273273;28;20417;-76
2021/08/16 01:27:13;;;;;;;15.93;12.98;;;22.10;83.40;;;;;;6272916;28;20409;-77
2021/08/16 01:30:17;;;;;;;16.67;13.85;;;22.10;83.60;;;;;;6273197;28;20578;-76
2021/08/16 01:33:19;;;;;;;15.82;14.00;;;22.10;83.90;;;;;;6273990;28;20508;-77
2021/08/16 01:36:21;;;;;;;14.45;12.98;;;22.10;84.00;;;;;;6273827;28;20413;-77
2021/08/16 01:39:23;;;;;;;16.05;12.75;;;22.20;84.00;;;;;;6273184;28;20416;-77
2021/08/16 01:42:27;;;;;;;26.13;12.88;;;22.20;84.00;;;;;;6273440;28;20433;-77
2021/08/16 01:45:30;;;;;;;14.13;12.73;;;22.20;83.80;;;;;;6272850;28;20500;-77
2021/08/16 01:48:32;;;;;;;15.20;12.88;;;22.20;84.00;;;;;;6272839;28;20475;-77
2021/08/16 01:51:34;;;;;;;15.82;14.20;;;22.20;83.80;;;;;;6272710;28;20416;-77
2021/08/16 01:54:36;;;;;;;14.73;12.65;;;22.30;83.50;;;;;;6273271;28;20521;-77
2021/08/16 01:57:39;;;;;;;15.07;11.40;;;22.40;83.10;;;;;;6272563;28;20421;-76
2021/08/16 02:00:41;;;;;;;14.20;11.85;;;22.50;82.70;;;;;;6287046;28;20485;-76
2021/08/16 02:03:42;;;;;;;14.40;12.52;;;22.60;82.40;;;;;;6290494;28;20407;-76
2021/08/16 02:06:44;;;;;;;14.77;11.05;;;22.70;82.00;;;;;;6280154;28;20407;-76
2021/08/16 02:09:46;;;;;;;19.20;11.25;;;22.70;81.80;;;;;;6280201;28;20403;-75
2021/08/16 02:12:49;;;;;;;13.20;11.47;;;22.80;81.50;;;;;;6279255;28;20411;-75
2021/08/16 02:15:51;;;;;;;12.75;10.27;;;22.80;81.30;;;;;;6278980;28;20457;-76
2021/08/16 02:18:53;;;;;;;12.57;10.63;;;22.80;81.30;;;;;;6278850;28;20435;-76
2021/08/16 02:21:55;;;;;;;13.23;10.68;;;22.90;80.90;;;;;;6279115;28;20424;-76
2021/08/16 02:24:56;;;;;;;12.77;10.80;;;22.90;80.70;;;;;;6278737;28;20430;-76
2021/08/16 02:28:00;;;;;;;10.98;9.85;;;22.90;80.70;;;;;;6278447;28;20431;-76
2021/08/16 02:31:01;;;;;;;12.25;10.73;;;22.90;80.90;;;;;;6277757;28;20407;-75
2021/08/16 02:34:03;;;;;;;12.93;10.38;;;23.00;80.50;;;;;;6278296;28;20439;-75
2021/08/16 02:37:05;;;;;;;12.98;10.95;;;23.00;80.30;;;;;;6277670;28;20437;-75
2021/08/16 02:40:09;;;;;;;11.98;9.63;;;23.00;80.90;;;;;;6253099;28;20415;-76
2021/08/16 02:43:13;;;;;;;14.82;10.15;;;23.00;79.50;;;;;;6247224;28;20545;-76
2021/08/16 02:46:15;;;;;;;11.90;9.43;;;23.00;79.30;;;;;;6247587;28;20434;-76
2021/08/16 02:49:16;;;;;;;11.45;8.68;;;23.00;79.20;;;;;;6247159;28;20505;-76
2021/08/16 02:52:19;;;;;;;12.90;9.60;;;23.00;79.10;;;;;;6246837;28;20549;-76
2021/08/16 02:55:21;;;;;;;12.23;8.70;;;23.00;78.90;;;;;;6245808;28;20588;-76
2021/08/16 02:58:24;;;;;;;13.65;9.32;;;23.00;78.70;;;;;;6246331;28;20441;-76
2021/08/16 03:01:26;;;;;;;14.93;9.48;;;23.00;78.30;;;;;;6246383;28;20514;-76
2021/08/16 03:04:28;;;;;;;11.25;9.25;;;23.00;78.50;;;;;;6246802;28;20527;-76
2021/08/16 03:07:30;;;;;;;13.88;8.77;;;23.00;78.20;;;;;;6245564;28;20877;-76
2021/08/16 03:10:33;;;;;;;12.40;8.63;;;23.00;78.10;;;;;;6286555;22;20477;-77
2021/08/16 03:13:37;;;;;;;9.23;7.90;;;23.00;77.60;;;;;;6269879;28;20486;-77
2021/08/16 03:16:38;;;;;;;12.55;8.63;;;23.00;77.50;;;;;;6269587;28;20499;-77
2021/08/16 03:19:40;;;;;;;12.10;8.00;;;23.00;77.10;;;;;;6269700;28;20500;-76
2021/08/16 03:22:42;;;;;;;11.90;7.65;;;23.00;76.70;;;;;;6270287;28;20543;-77
2021/08/16 03:25:44;;;;;;;15.50;8.07;;;23.00;76.50;;;;;;6269597;28;20857;-77
2021/08/16 03:28:48;;;;;;;10.37;8.67;;;22.90;76.40;;;;;;6269601;28;20498;-77
2021/08/16 03:31:50;;;;;;;10.68;7.75;;;23.00;75.70;;;;;;6269778;28;20418;-76
2021/08/16 03:34:51;;;;;;;12.93;8.10;;;22.90;75.80;;;;;;6274601;28;20436;-76
2021/08/16 03:37:53;;;;;;;11.63;8.18;;;22.90;76.50;;;;;;6274757;28;20487;-78
2021/08/16 03:40:55;;;;;;;9.45;7.63;;;22.90;75.80;;;;;;6274676;28;20417;-77
2021/08/16 03:43:58;;;;;;;8.75;7.43;;;22.90;75.90;;;;;;6274283;28;20495;-77
2021/08/16 03:47:00;;;;;;;10.87;7.00;;;22.90;75.80;;;;;;6275054;28;20429;-76
2021/08/16 03:50:02;;;;;;;10.57;8.33;;;22.90;76.00;;;;;;6274500;28;20507;-76
2021/08/16 03:53:05;;;;;;;12.68;7.50;;;22.90;75.70;;;;;;6274288;28;20556;-77
2021/08/16 03:56:10;;;;;;;11.10;7.43;;;22.90;75.40;;;;;;6273863;28;20412;-76
2021/08/16 03:59:13;;;;;;;9.48;7.50;;;22.90;75.40;;;;;;6274321;28;20421;-76
2021/08/16 04:02:15;;;;;;;14.43;7.53;;;22.80;75.20;;;;;;6274282;28;20917;-76
2021/08/16 04:05:17;;;;;;;16.65;8.35;;;22.80;75.30;;;;;;6273864;28;20437;-76
2021/08/16 04:08:19;;;;;;;12.85;7.65;;;22.80;75.20;;;;;;6273794;28;20467;-76
2021/08/16 04:11:21;;;;;;;8.20;7.22;;;22.80;75.30;;;;;;6273941;28;20496;-77
2021/08/16 04:14:24;;;;;;;10.43;7.00;;;22.70;75.20;;;;;;6274307;28;20507;-76
2021/08/16 04:17:26;;;;;;;11.63;7.13;;;22.70;75.10;;;;;;6273231;28;20583;-76
2021/08/16 04:20:28;;;;;;;12.35;7.78;;;22.70;75.00;;;;;;6273755;28;20433;-76
2021/08/16 04:23:30;;;;;;;10.55;7.13;;;22.60;74.90;;;;;;6273756;28;20437;-76
2021/08/16 04:26:32;;;;;;;10.20;6.95;;;22.60;74.60;;;;;;6274119;28;20469;-76
2021/08/16 04:29:35;;;;;;;7.57;6.78;;;22.60;74.70;;;;;;6274122;28;20488;-76
2021/08/16 04:32:38;;;;;;;12.90;7.15;;;22.60;74.30;;;;;;6275298;28;20463;-76
2021/08/16 04:35:40;;;;;;;10.70;6.43;;;22.50;74.10;;;;;;6272942;28;20413;-76
2021/08/16 04:38:41;;;;;;;10.88;6.32;;;22.50;73.50;;;;;;6274027;28;20500;-75
2021/08/16 04:41:43;;;;;;;9.27;6.88;;;22.50;73.80;;;;;;6273391;28;20496;-75
2021/08/16 04:44:47;;;;;;;12.93;7.03;;;22.50;72.90;;;;;;6272972;28;20899;-76
2021/08/16 04:47:49;;;;;;;9.30;6.93;;;22.40;72.80;;;;;;6272672;28;20969;-76
2021/08/16 04:50:51;;;;;;;10.35;6.57;;;22.40;72.70;;;;;;6272799;28;20512;-76
2021/08/16 04:53:52;;;;;;;10.20;6.53;;;22.40;72.80;;;;;;6273293;28;20472;-76
2021/08/16 04:56:55;;;;;;;15.47;6.10;;;22.30;72.60;;;;;;6272516;28;20900;-76
2021/08/16 04:59:59;;;;;;;12.52;6.22;;;22.30;72.60;;;;;;6272693;28;20449;-76
2021/08/16 05:03:01;;;;;;;13.65;7.07;;;22.30;72.40;;;;;;6272504;28;20913;-76
2021/08/16 05:06:07;;;;;;;8.13;5.80;;;22.30;72.60;;;;;;6272893;28;20430;-76
2021/08/16 05:09:09;;;;;;;9.63;6.40;;;22.30;72.80;;;;;;6272445;28;20437;-76
2021/08/16 05:12:11;;;;;;;10.80;7.07;;;22.30;72.80;;;;;;6272298;28;20822;-76
2021/08/16 05:15:14;;;;;;;10.45;5.90;;;22.30;72.40;;;;;;6272086;28;21017;-76
2021/08/16 05:18:16;;;;;;;14.48;5.28;;;22.20;72.00;;;;;;6272756;28;20520;-76
2021/08/16 05:21:18;;;;;;;10.13;5.43;;;22.30;71.80;;;;;;6272048;28;20489;-76
2021/08/16 05:24:20;;;;;;;11.57;5.97;;;22.20;71.70;;;;;;6272277;28;20493;-76
2021/08/16 05:27:22;;;;;;;7.45;5.35;;;22.30;71.30;;;;;;6271911;28;20467;-75
2021/08/16 05:30:25;;;;;;;7.23;5.33;;;22.20;71.30;;;;;;6272502;28;20440;-76
2021/08/16 05:33:27;;;;;;;8.38;5.75;;;22.20;71.40;;;;;;6272170;28;20496;-76
2021/08/16 05:36:30;;;;;;;8.95;5.30;;;22.20;70.80;;;;;;6271441;28;20925;-76
2021/08/16 05:39:32;;;;;;;8.67;5.63;;;22.30;70.70;;;;;;6271724;28;20892;-76
2021/08/16 05:42:34;;;;;;;10.10;5.63;;;22.30;70.30;;;;;;6271947;28;20500;-76
2021/08/16 05:45:37;;;;;;;17.45;4.82;;;22.30;69.90;;;;;;6271647;28;20433;-76
2021/08/16 05:48:39;;;;;;;7.88;5.10;;;22.40;69.60;;;;;;6271612;28;20426;-76
2021/08/16 05:51:41;;;;;;;8.80;4.63;;;22.40;68.80;;;;;;6271437;28;20425;-76
2021/08/16 05:54:42;;;;;;;7.53;5.10;;;22.40;68.30;;;;;;6271990;28;20520;-76
2021/08/16 05:57:44;;;;;;;8.00;4.13;;;22.50;67.70;;;;;;6270951;28;20555;-76
2021/08/16 06:00:48;;;;;;;6.10;3.85;;;22.50;66.70;;;;;;6271152;28;20438;-76
2021/08/16 06:03:49;;;;;;;5.80;3.78;;;22.60;66.60;;;;;;6265519;28;20840;-76
2021/08/16 06:06:51;;;;;;;6.18;4.32;;;22.50;66.10;;;;;;6266547;28;20464;-76
2021/08/16 06:09:53;;;;;;;14.23;3.85;;;22.60;65.80;;;;;;6271012;28;20912;-76
2021/08/16 06:12:55;;;;;;;6.25;3.60;;;22.70;65.10;;;;;;6270954;28;20417;-76
2021/08/16 06:15:59;;;;;;;6.55;3.92;;;22.60;64.00;;;;;;6270502;28;20417;-76
2021/08/16 06:19:00;;;;;;;5.85;3.80;;;22.60;64.80;;;;;;6270585;28;20567;-76
2021/08/16 06:22:03;;;;;;;9.90;4.03;;;22.50;64.30;;;;;;6270604;28;21040;-76
2021/08/16 06:25:06;;;;;;;6.60;3.30;;;22.50;64.10;;;;;;6270262;28;20997;-76
2021/08/16 06:28:08;;;;;;;6.18;3.42;;;22.60;63.00;;;;;;6270333;28;20414;-77
2021/08/16 06:31:11;;;;;;;5.03;3.23;;;22.70;63.40;;;;;;6270412;28;20535;-76
2021/08/16 06:34:13;;;;;;;6.97;4.03;;;22.90;62.10;;;;;;6270490;28;20489;-76
2021/08/16 06:37:14;;;;;;;4.10;3.38;;;23.20;62.20;;;;;;6270168;28;20452;-76
2021/08/16 06:40:16;;;;;;;4.72;3.40;;;23.60;60.00;;;;;;6269981;28;20877;-75
2021/08/16 06:43:18;;;;;;;5.87;3.03;;;24.00;58.30;;;;;;6271002;28;20410;-75
2021/08/16 06:46:22;;;;;;;7.80;3.47;;;24.10;58.00;;;;;;6270357;28;20432;-74
2021/08/16 06:49:24;;;;;;;5.03;3.15;;;24.20;58.00;;;;;;6268287;28;20504;-75
2021/08/16 06:52:26;;;;;;;4.50;3.70;;;24.20;58.00;;;;;;6268534;28;20941;-75
2021/08/16 06:55:28;;;;;;;5.35;3.45;;;24.40;58.50;;;;;;6269858;28;20466;-74
2021/08/16 06:58:30;;;;;;;7.67;4.70;;;24.60;58.70;;;;;;6270031;28;20536;-74
2021/08/16 07:01:33;;;;;;;6.70;3.77;;;24.60;58.60;;;;;;6269507;28;20763;-74
2021/08/16 07:04:35;;;;;;;5.80;3.97;;;24.50;59.60;;;;;;6269632;28;20945;-74
2021/08/16 07:07:37;;;;;;;8.52;4.15;;;24.30;60.10;;;;;;6268567;28;20447;-74
2021/08/16 07:10:39;;;;;;;6.57;3.92;;;24.10;60.50;;;;;;6269879;28;20864;-74
2021/08/16 07:13:41;;;;;;;6.13;3.72;;;23.90;61.10;;;;;;6267735;28;20543;-75
2021/08/16 07:16:44;;;;;;;4.03;3.47;;;23.80;60.80;;;;;;6269435;28;20488;-75
2021/08/16 07:19:46;;;;;;;8.02;3.67;;;23.90;61.30;;;;;;6269593;28;20471;-75
2021/08/16 07:22:47;;;;;;;6.13;3.58;;;24.00;60.70;;;;;;6269413;28;20530;-74
2021/08/16 07:25:49;;;;;;;8.23;4.18;;;24.00;60.60;;;;;;6269313;28;20846;-75
2021/08/16 07:28:52;;;;;;;6.38;3.45;;;24.10;60.90;;;;;;6269218;28;20409;-75
2021/08/16 07:31:55;;;;;;;7.97;4.00;;;24.10;60.80;;;;;;6269375;28;20428;-76
2021/08/16 07:34:57;;;;;;;4.57;3.28;;;24.00;60.00;;;;;;6269189;28;20582;-76
2021/08/16 07:37:59;;;;;;;5.70;4.10;;;23.90;59.90;;;;;;6269364;28;20482;-75
2021/08/16 07:41:00;;;;;;;13.13;3.80;;;23.80;60.60;;;;;;6269067;28;20518;-75
2021/08/16 07:44:02;;;;;;;6.15;3.03;;;23.60;60.60;;;;;;6269398;28;20493;-75
2021/08/16 07:47:05;;;;;;;6.40;3.15;;;23.60;60.70;;;;;;6268901;28;20461;-75
2021/08/16 07:50:11;;;;;;;5.22;3.30;;;23.50;60.80;;;;;;6269419;28;20437;-75
2021/08/16 07:53:13;;;;;;;6.28;3.00;;;23.50;61.10;;;;;;6266980;28;20467;-75
2021/08/16 07:56:15;;;;;;;9.83;3.53;;;23.60;60.80;;;;;;6268695;28;20409;-74
2021/08/16 07:59:17;;;;;;;5.35;3.50;;;23.70;60.30;;;;;;6269087;28;20486;-75
2021/08/16 08:02:20;;;;;;;5.57;3.33;;;24.10;59.60;;;;;;6267315;28;20433;-75
2021/08/16 08:05:24;;;;;;;6.88;3.30;;;24.10;59.70;;;;;;6268588;28;20413;-75
2021/08/16 08:08:25;;;;;;;8.20;3.05;;;24.00;58.30;;;;;;6268346;28;20949;-75
2021/08/16 08:11:27;;;;;;;10.30;3.00;;;23.90;57.70;;;;;;6268835;28;20545;-75
2021/08/16 08:14:29;;;;;;;8.65;3.25;;;24.00;56.30;;;;;;6269076;28;20444;-76
2021/08/16 08:17:32;;;;;;;6.47;2.90;;;24.40;55.80;;;;;;6268499;28;20507;-75
2021/08/16 08:20:34;;;;;;;10.18;3.88;;;24.70;53.50;;;;;;6272513;28;20424;-75
2021/08/16 08:23:36;;;;;;;5.68;2.83;;;24.80;52.70;;;;;;6273479;28;20447;-75
2021/08/16 08:26:38;;;;;;;5.97;3.03;;;25.00;53.10;;;;;;6273493;28;20429;-75
2021/08/16 08:29:40;;;;;;;5.97;2.58;;;25.10;52.40;;;;;;6273108;28;20505;-75
2021/08/16 08:32:51;;;;;;;5.80;2.58;;;25.50;51.70;;;;;;6273201;28;20463;-75
2021/08/16 08:35:52;;;;;;;5.90;2.95;;;26.10;51.20;;;;;;6273083;28;20490;-75
2021/08/16 08:38:54;;;;;;;7.10;3.28;;;26.60;48.90;;;;;;6272975;28;20469;-76
2021/08/16 08:41:59;;;;;;;6.03;3.08;;;26.90;47.60;;;;;;6273486;28;20511;-75
2021/08/16 08:45:01;;;;;;;3.88;2.40;;;26.90;48.10;;;;;;6272953;28;20516;-75
2021/08/16 08:48:05;;;;;;;7.03;2.97;;;27.00;47.30;;;;;;6272827;28;20496;-75
2021/08/16 08:51:07;;;;;;;6.60;2.78;;;27.30;46.60;;;;;;6272494;28;20420;-76
2021/08/16 08:54:09;;;;;;;5.18;3.22;;;27.40;46.90;;;;;;6253179;28;20874;-75
2021/08/16 08:57:19;;;;;;;6.35;3.10;;;27.50;46.70;;;;;;6247389;28;20882;-75
2021/08/16 09:00:22;;;;;;;6.75;2.47;;;27.50;46.20;;;;;;6247759;28;20498;-75
2021/08/16 09:03:25;;;;;;;6.03;2.83;;;27.50;44.90;;;;;;6254862;28;20829;-75
2021/08/16 09:06:30;;;;;;;6.70;3.07;;;27.20;44.80;;;;;;6272308;28;20910;-75
2021/08/16 09:09:33;;;;;;;4.72;2.60;;;27.30;45.30;;;;;;6280329;22;20438;-75
2021/08/16 09:12:37;;;;;;;6.00;2.90;;;27.50;44.60;;;;;;6198495;28;20493;-75
2021/08/16 09:15:39;;;;;;;4.47;2.20;;;27.70;45.30;;;;;;6198854;28;20418;-75
2021/08/16 09:18:43;;;;;;;5.60;2.75;;;28.00;44.50;;;;;;6199849;28;20447;-75
2021/08/16 09:21:48;;;;;;;8.43;3.13;;;28.00;42.40;;;;;;6199204;28;20503;-76
2021/08/16 09:25:00;;;;;;;6.90;2.85;;;28.00;42.40;;;;;;6198501;28;20441;-75
2021/08/16 09:28:03;;;;;;;6.40;2.92;;;27.90;42.70;;;;;;6198513;28;20450;-76
2021/08/16 09:31:16;;;;;;;13.55;3.13;;;27.90;43.00;;;;;;6197344;28;20406;-75
2021/08/16 09:34:29;;;;;;;8.65;2.80;;;27.60;41.50;;;;;;6199138;28;20573;-76
2021/08/16 09:37:31;;;;;;;8.40;2.37;;;26.90;43.30;;;;;;6197585;28;20545;-75
2021/08/16 09:40:38;;;;;;;4.97;2.47;;;26.30;45.00;;;;;;6198600;28;20446;-75
2021/08/16 09:43:40;;;;;;;7.40;2.88;;;26.20;45.70;;;;;;6198087;28;20450;-75
2021/08/16 09:46:42;;;;;;;9.50;2.78;;;26.50;44.80;;;;;;6198318;28;20466;-75
2021/08/16 09:49:57;;;;;;;4.77;2.70;;;26.80;43.90;;;;;;6198078;28;20493;-75
2021/08/16 09:53:08;;;;;;;5.28;2.60;;;27.20;43.20;;;;;;6191652;28;20435;-75
2021/08/16 09:56:09;;;;;;;9.18;3.30;;;28.00;42.00;;;;;;6172597;28;20789;-74
2021/08/16 09:59:11;;;;;;;6.68;2.88;;;28.60;40.40;;;;;;6173628;28;20430;-75
2021/08/16 10:02:15;;;;;;;4.78;2.95;;;28.60;40.70;;;;;;6174084;28;20809;-75
2021/08/16 10:05:19;;;;;;;6.13;2.83;;;28.80;39.70;;;;;;6173104;28;20420;-76
2021/08/16 10:08:23;;;;;;;7.53;2.55;;;28.90;38.30;;;;;;6173488;28;20783;-75
2021/08/16 10:11:24;;;;;;;7.03;2.63;;;29.00;38.90;;;;;;6173243;28;20500;-75
2021/08/16 10:14:32;;;;;;;6.35;2.15;;;28.80;39.40;;;;;;6190549;28;20521;-76
2021/08/16 10:17:37;;;;;;;7.25;3.13;;;28.80;39.50;;;;;;6198064;28;20422;-75
2021/08/16 10:20:41;;;;;;;4.78;2.13;;;28.60;39.40;;;;;;6200002;28;20506;-75
2021/08/16 10:23:49;;;;;;;6.37;2.57;;;28.50;38.90;;;;;;6196979;28;20476;-75
2021/08/16 10:26:59;;;;;;;6.55;2.55;;;28.20;40.90;;;;;;6196956;28;20470;-75
2021/08/16 10:30:06;;;;;;;4.90;2.42;;;28.30;40.70;;;;;;6197463;28;20516;-75
2021/08/16 10:33:08;;;;;;;6.82;2.47;;;28.40;39.10;;;;;;6197143;28;20422;-75
2021/08/16 10:36:19;;;;;;;4.38;2.20;;;28.10;39.60;;;;;;6196583;28;20423;-75
2021/08/16 10:39:21;;;;;;;5.10;2.75;;;27.90;40.10;;;;;;6196699;28;20776;-75
2021/08/16 10:42:33;;;;;;;5.38;2.55;;;27.80;39.90;;;;;;6197047;28;20470;-75
2021/08/16 10:45:44;;;;;;;9.07;3.13;;;27.90;40.40;;;;;;6196739;28;20410;-75
2021/08/16 10:48:46;;;;;;;7.03;3.25;;;28.00;39.90;;;;;;6196749;28;20501;-75
2021/08/16 10:51:49;;;;;;;7.53;3.43;;;27.90;40.20;;;;;;6196563;28;20590;-75
2021/08/16 10:54:52;;;;;;;9.00;2.75;;;27.60;41.60;;;;;;6182614;28;21102;-76
2021/08/16 10:57:54;;;;;;;8.45;2.65;;;27.40;41.90;;;;;;6172234;28;20531;-76
2021/08/16 11:00:56;;;;;;;7.17;2.73;;;27.30;42.00;;;;;;6172114;28;20478;-75
2021/08/16 11:03:59;;;;;;;9.48;3.20;;;27.30;42.00;;;;;;6172464;28;20427;-75
2021/08/16 11:07:04;;;;;;;6.93;3.10;;;27.20;42.00;;;;;;6171984;28;20563;-74
2021/08/16 11:10:08;;;;;;;6.53;3.08;;;27.10;42.20;;;;;;6172715;28;20443;-75
2021/08/16 11:13:15;;;;;;;5.10;2.60;;;26.90;43.40;;;;;;6178383;28;20540;-76
2021/08/16 11:16:17;;;;;;;5.00;2.43;;;27.20;43.80;;;;;;6195213;28;21065;-75
2021/08/16 11:19:19;;;;;;;5.78;2.35;;;27.70;42.70;;;;;;6196100;28;20966;-75
2021/08/16 11:22:22;;;;;;;6.10;2.97;;;28.20;41.70;;;;;;6196537;28;20461;-76
2021/08/16 11:25:24;;;;;;;8.40;3.22;;;28.70;40.60;;;;;;6195781;28;20439;-75
2021/08/16 11:28:28;;;;;;;6.22;3.47;;;29.20;39.80;;;;;;6196079;28;20505;-75
2021/08/16 11:31:30;;;;;;;8.60;3.53;;;29.50;39.90;;;;;;6195910;28;20465;-75
2021/08/16 11:34:47;;;;;;;9.23;3.63;;;29.70;39.20;;;;;;6196099;28;20911;-75
2021/08/16 11:37:50;;;;;;;6.80;3.77;;;29.60;39.40;;;;;;6195597;28;20414;-74
2021/08/16 11:41:03;;;;;;;6.18;3.83;;;29.50;39.10;;;;;;6195555;28;20469;-75
2021/08/16 11:44:13;;;;;;;7.40;3.30;;;29.50;38.10;;;;;;6196177;28;20545;-75
2021/08/16 11:47:15;;;;;;;12.20;4.03;;;29.40;38.10;;;;;;6195281;28;20474;-74
2021/08/16 11:50:19;;;;;;;13.77;4.20;;;29.30;38.10;;;;;;6196348;28;20461;-75
2021/08/16 11:53:23;;;;;;;7.03;4.07;;;29.20;39.10;;;;;;6195887;28;20430;-75
2021/08/16 11:56:24;;;;;;;6.63;3.77;;;28.90;37.80;;;;;;6181659;28;20511;-75
2021/08/16 11:59:27;;;;;;;6.90;3.58;;;28.50;38.60;;;;;;6176078;28;20472;-75
2021/08/16 12:02:31;;;;;;;5.60;3.55;;;28.40;39.80;;;;;;6177053;28;20534;-75
2021/08/16 12:05:33;;;;;;;6.93;3.47;;;28.60;39.00;;;;;;6175954;28;20499;-74
2021/08/16 12:08:36;;;;;;;5.63;3.03;;;29.10;38.00;;;;;;6176310;28;20426;-75
2021/08/16 12:11:39;;;;;;;7.47;3.70;;;29.30;37.00;;;;;;6175841;28;20442;-75
2021/08/16 12:14:41;;;;;;;6.70;3.15;;;29.00;37.10;;;;;;6194915;28;20437;-75
2021/08/16 12:17:43;;;;;;;6.10;3.55;;;28.60;38.20;;;;;;6199604;28;20422;-75
2021/08/16 12:20:48;;;;;;;5.30;3.00;;;28.20;39.10;;;;;;6199784;28;20462;-75
2021/08/16 12:23:56;;;;;;;6.68;3.58;;;28.10;39.50;;;;;;6200001;28;20489;-75
2021/08/16 12:27:03;;;;;;;5.15;3.00;;;28.00;40.00;;;;;;6199587;28;20524;-75
2021/08/16 12:30:16;;;;;;;13.55;3.53;;;28.20;39.00;;;;;;6200330;28;20541;-76
2021/08/16 12:33:19;;;;;;;8.05;3.33;;;28.40;37.90;;;;;;6199402;28;20423;-76
2021/08/16 12:36:25;;;;;;;5.65;3.33;;;28.80;38.00;;;;;;6199489;28;20504;-75
2021/08/16 12:39:34;;;;;;;6.07;3.47;;;29.10;37.40;;;;;;6199203;28;20800;-76
2021/08/16 12:42:37;;;;;;;3.55;2.80;;;29.30;36.70;;;;;;6200165;28;20524;-75
2021/08/16 12:45:38;;;;;;;5.97;3.47;;;29.30;36.80;;;;;;6198946;28;20422;-76
2021/08/16 12:48:42;;;;;;;5.93;3.00;;;29.30;37.00;;;;;;6199365;28;20418;-75
2021/08/16 12:51:44;;;;;;;5.22;2.85;;;29.20;36.70;;;;;;6199121;28;20422;-76
2021/08/16 12:54:47;;;;;;;5.30;3.25;;;29.10;37.20;;;;;;6199530;28;20470;-76
2021/08/16 12:57:49;;;;;;;7.07;2.95;;;29.20;37.40;;;;;;6177620;28;20795;-76
2021/08/16 13:00:50;;;;;;;5.93;3.03;;;29.30;37.00;;;;;;6174944;28;20514;-76
2021/08/16 13:03:53;;;;;;;6.38;3.35;;;29.10;37.30;;;;;;6174867;28;20424;-75
2021/08/16 13:06:55;;;;;;;5.03;2.97;;;28.80;37.80;;;;;;6173605;28;20432;-76
2021/08/16 13:09:58;;;;;;;6.50;3.15;;;28.40;38.70;;;;;;6175347;28;20530;-76
2021/08/16 13:13:00;;;;;;;6.10;2.63;;;28.00;40.20;;;;;;6179962;28;20505;-76
2021/08/16 13:16:02;;;;;;;7.45;2.92;;;27.70;40.30;;;;;;6198552;28;20995;-74
2021/08/16 13:19:03;;;;;;;10.90;3.30;;;27.20;41.50;;;;;;6198528;28;21204;-76
2021/08/16 13:22:06;;;;;;;7.78;3.22;;;26.80;42.50;;;;;;6199407;28;20481;-76
2021/08/16 13:25:11;;;;;;;11.57;3.55;;;26.60;43.70;;;;;;6198408;28;20418;-76
2021/08/16 13:28:13;;;;;;;6.72;3.03;;;26.70;44.10;;;;;;6198701;28;20498;-75
2021/08/16 13:31:14;;;;;;;6.63;3.07;;;27.00;43.60;;;;;;6198355;28;20469;-75
2021/08/16 13:34:19;;;;;;;5.45;3.22;;;27.10;43.80;;;;;;6199123;28;20496;-75
2021/08/16 13:37:21;;;;;;;7.15;3.10;;;27.00;43.60;;;;;;6198030;28;20450;-75
2021/08/16 13:40:24;;;;;;;6.35;2.63;;;27.20;43.70;;;;;;6198486;28;20497;-75
2021/08/16 13:43:26;;;;;;;9.05;3.45;;;27.30;41.60;;;;;;6198019;28;20418;-75
2021/08/16 13:46:28;;;;;;;6.63;2.90;;;27.10;42.00;;;;;;6198630;28;20430;-75
2021/08/16 13:49:31;;;;;;;7.20;2.92;;;27.00;42.60;;;;;;6198220;28;20478;-76
2021/08/16 13:52:33;;;;;;;7.45;3.10;;;26.90;43.50;;;;;;6197983;28;20425;-76
2021/08/16 13:55:36;;;;;;;6.30;2.70;;;26.90;44.00;;;;;;6198139;28;20485;-76
2021/08/16 13:58:38;;;;;;;5.77;3.40;;;26.90;44.00;;;;;;6172758;28;20584;-77
2021/08/16 14:01:40;;;;;;;14.00;2.63;;;27.00;43.40;;;;;;6173822;28;20475;-77
2021/08/16 14:04:43;;;;;;;4.87;2.77;;;27.20;42.80;;;;;;6172128;28;20599;-77
2021/08/16 14:07:44;;;;;;;8.77;3.10;;;27.30;42.40;;;;;;6173587;28;20478;-76
2021/08/16 14:10:48;;;;;;;8.02;2.60;;;27.20;42.40;;;;;;6173386;28;20551;-77
2021/08/16 14:13:49;;;;;;;7.55;2.70;;;27.10;43.00;;;;;;6186334;28;20513;-77
2021/08/16 14:16:51;;;;;;;6.05;2.40;;;27.20;43.20;;;;;;6196863;28;20490;-76
2021/08/16 14:19:53;;;;;;;8.87;3.10;;;27.20;42.70;;;;;;6197654;28;20931;-77
2021/08/16 14:22:55;;;;;;;7.43;3.13;;;27.30;42.30;;;;;;6197531;28;20489;-77
2021/08/16 14:25:58;;;;;;;8.73;3.10;;;27.30;43.30;;;;;;6197698;28;20738;-76
2021/08/16 14:29:00;;;;;;;5.40;2.22;;;27.30;41.90;;;;;;6197729;28;20422;-76
2021/08/16 14:32:03;;;;;;;4.78;2.55;;;27.30;41.70;;;;;;6197511;28;20565;-77
2021/08/16 14:35:06;;;;;;;5.25;2.55;;;27.30;41.20;;;;;;6197983;28;20414;-77
2021/08/16 14:38:08;;;;;;;9.18;2.55;;;27.20;41.80;;;;;;6197703;28;21093;-77
2021/08/16 14:41:11;;;;;;;4.43;2.38;;;27.20;40.90;;;;;;6197476;28;20419;-77
2021/08/16 14:44:13;;;;;;;7.43;2.88;;;27.00;41.20;;;;;;6197630;28;20569;-77
2021/08/16 14:47:15;;;;;;;4.27;2.27;;;26.80;42.40;;;;;;6198025;28;20569;-77
2021/08/16 14:50:17;;;;;;;3.20;2.03;;;26.60;42.70;;;;;;6209424;28;20458;-77
2021/08/16 14:53:18;;;;;;;7.38;2.45;;;26.50;42.70;;;;;;6223789;28;20445;-76
2021/08/16 14:56:23;;;;;;;4.17;2.17;;;26.40;43.00;;;;;;6219959;28;20410;-76
2021/08/16 14:59:25;;;;;;;4.30;2.03;;;26.30;42.70;;;;;;6195704;28;20452;-75
2021/08/16 15:02:27;;;;;;;4.25;1.73;;;26.20;43.20;;;;;;6203250;28;20424;-76
2021/08/16 15:05:29;;;;;;;2.60;1.98;;;26.10;43.50;;;;;;6202664;28;20456;-76
2021/08/16 15:08:30;;;;;;;5.53;1.90;;;26.00;44.20;;;;;;6203550;28;20423;-76
2021/08/16 15:11:34;;;;;;;5.07;1.75;;;26.00;44.40;;;;;;6203144;28;20428;-76
2021/08/16 15:14:36;;;;;;;4.43;2.75;;;26.00;44.30;;;;;;6222536;28;20410;-76
2021/08/16 15:17:37;;;;;;;5.13;2.08;;;25.90;44.50;;;;;;6225629;28;20403;-75
2021/08/16 15:20:39;;;;;;;8.95;2.63;;;25.80;44.70;;;;;;6226883;28;20453;-76
2021/08/16 15:23:43;;;;;;;6.03;1.73;;;25.70;45.30;;;;;;6223671;28;20418;-75
2021/08/16 15:26:46;;;;;;;9.37;2.90;;;25.50;45.10;;;;;;6201257;28;20434;-76
2021/08/16 15:29:54;;;;;;;3.53;1.60;;;25.40;45.20;;;;;;6202473;28;20524;-75
2021/08/16 15:32:56;;;;;;;2.05;1.45;;;25.30;45.50;;;;;;6203704;28;20465;-75
2021/08/16 15:35:58;;;;;;;4.57;1.90;;;25.30;45.50;;;;;;6198532;28;20419;-76
2021/08/16 15:39:00;;;;;;;3.67;2.33;;;25.20;46.00;;;;;;6198325;28;20470;-75
2021/08/16 15:42:04;;;;;;;3.72;2.05;;;25.20;45.50;;;;;;6197678;28;20501;-77
2021/08/16 15:45:07;;;;;;;5.35;2.53;;;25.10;45.70;;;;;;6196119;28;20422;-76